Time;durP1;ratioP1;P1;durP2;ratioP2;P2;SDS_P1;SDS_P2;PMS_P1;PMS_P2;Temp;Humidity;BMP_temperature;BMP_pressure;BME280_temperature;BME280_humidity;BME280_pressure;Samples;Min_cycle;Max_cycle;Signal;HPM_P1;HPM_P2
2022/08/24 00:00:55;;;;;;;1.20;1.10;;;19.30;93.10;;;;;;5094136;28;20451;-84
2022/08/24 00:03:22;;;;;;;0.90;0.90;;;19.30;93.50;;;;;;5094297;28;20451;-84
2022/08/24 00:05:49;;;;;;;0.80;0.70;;;19.20;93.30;;;;;;5094182;28;20534;-84
2022/08/24 00:08:17;;;;;;;2.23;0.90;;;19.20;93.50;;;;;;5094219;28;20447;-84
2022/08/24 00:10:45;;;;;;;0.87;0.87;;;19.20;93.60;;;;;;5094017;28;20815;-84
2022/08/24 00:13:11;;;;;;;1.33;0.93;;;19.10;93.60;;;;;;5094095;28;20444;-84
2022/08/24 00:15:41;;;;;;;0.73;0.70;;;19.10;93.80;;;;;;5093991;28;20448;-85
2022/08/24 00:18:07;;;;;;;0.70;0.70;;;19.00;93.70;;;;;;5093544;28;20482;-84
2022/08/24 00:20:35;;;;;;;1.30;0.87;;;19.00;94.00;;;;;;5093931;28;20435;-84
2022/08/24 00:23:01;;;;;;;1.67;1.57;;;19.00;94.80;;;;;;5093668;28;20967;-84
2022/08/24 00:25:28;;;;;;;1.00;1.00;;;19.00;94.70;;;;;;5093497;28;20550;-84
2022/08/24 00:27:55;;;;;;;1.27;0.87;;;19.00;94.30;;;;;;5093864;28;20448;-84
2022/08/24 00:30:22;;;;;;;1.00;0.90;;;19.00;94.30;;;;;;5094101;28;20458;-84
2022/08/24 00:32:52;;;;;;;0.87;0.87;;;18.90;94.60;;;;;;5093721;28;20468;-84
2022/08/24 00:35:20;;;;;;;1.13;1.10;;;18.90;94.40;;;;;;5093450;28;20444;-84
2022/08/24 00:37:48;;;;;;;0.90;0.80;;;18.90;94.50;;;;;;5093637;28;20488;-84
2022/08/24 00:40:19;;;;;;;1.10;1.10;;;18.90;94.10;;;;;;5093331;28;20459;-84
2022/08/24 00:42:46;;;;;;;2.07;1.27;;;18.80;94.20;;;;;;5093556;28;20464;-84
2022/08/24 00:45:16;;;;;;;1.80;1.40;;;18.80;94.30;;;;;;5093191;28;20456;-84
2022/08/24 00:47:47;;;;;;;1.13;0.93;;;18.80;94.10;;;;;;5093559;28;20448;-84
2022/08/24 00:50:21;;;;;;;1.43;1.33;;;18.80;94.70;;;;;;5093631;28;20435;-84
2022/08/24 00:52:52;;;;;;;0.80;0.80;;;18.80;94.60;;;;;;5093482;28;21009;-84
2022/08/24 00:55:26;;;;;;;1.07;0.67;;;18.80;95.00;;;;;;5093547;28;20503;-84
2022/08/24 00:57:59;;;;;;;1.70;0.83;;;18.80;94.60;;;;;;5093419;28;20475;-83
2022/08/24 01:00:34;;;;;;;0.77;0.77;;;18.80;95.00;;;;;;5093482;28;20436;-84
2022/08/24 01:03:05;;;;;;;1.03;0.73;;;18.80;95.10;;;;;;5093384;28;20467;-85
2022/08/24 01:05:35;;;;;;;0.70;0.70;;;18.80;95.60;;;;;;5093418;28;20436;-84
2022/08/24 01:08:05;;;;;;;1.20;1.10;;;18.80;94.90;;;;;;5093669;28;20431;-84
2022/08/24 01:10:37;;;;;;;0.70;0.70;;;18.70;94.80;;;;;;5093417;28;20424;-84
2022/08/24 01:13:07;;;;;;;1.17;0.90;;;18.70;94.90;;;;;;5093313;28;20460;-85
2022/08/24 01:15:37;;;;;;;1.00;1.00;;;18.60;95.40;;;;;;5093379;28;20448;-85
2022/08/24 01:20:56;;;;;;;1.70;1.30;;;18.60;95.20;;;;;;5093324;28;20396;-84
2022/08/24 01:23:36;;;;;;;1.00;0.97;;;18.50;95.50;;;;;;5093300;28;20424;-84
2022/08/24 01:26:03;;;;;;;2.30;0.97;;;18.50;96.20;;;;;;5092863;28;20484;-84
2022/08/24 01:28:30;;;;;;;1.10;1.00;;;18.50;95.80;;;;;;5093215;28;20451;-84
2022/08/24 01:30:57;;;;;;;1.37;1.27;;;18.50;95.70;;;;;;5093140;28;20444;-84
2022/08/24 01:33:27;;;;;;;1.03;0.90;;;18.40;95.40;;;;;;5093232;28;20448;-84
2022/08/24 01:35:59;;;;;;;1.27;1.17;;;18.40;95.40;;;;;;5093169;28;20444;-84
2022/08/24 01:38:26;;;;;;;1.00;1.00;;;18.30;95.40;;;;;;5093138;28;20468;-84
2022/08/24 01:40:59;;;;;;;1.23;1.13;;;18.30;95.60;;;;;;5093073;28;20854;-84
2022/08/24 01:43:26;;;;;;;1.00;1.00;;;18.30;96.10;;;;;;5093159;28;20790;-85
2022/08/24 01:45:53;;;;;;;1.77;0.70;;;18.30;96.50;;;;;;5093051;28;20455;-85
2022/08/24 01:48:20;;;;;;;0.80;0.80;;;18.20;96.30;;;;;;5093134;28;20440;-84
2022/08/24 01:50:47;;;;;;;1.00;1.00;;;18.20;96.10;;;;;;5093808;28;20794;-89
2022/08/24 01:53:14;;;;;;;1.40;0.80;;;18.20;96.40;;;;;;5094064;28;20459;-89
2022/08/24 01:55:43;;;;;;;1.00;0.90;;;18.20;96.80;;;;;;5094479;28;20455;-89
2022/08/24 01:58:34;;;;;;;1.13;1.03;;;18.10;97.00;;;;;;5096463;28;20544;-91
2022/08/24 02:01:01;;;;;;;0.77;0.77;;;18.10;96.60;;;;;;5097717;28;20424;-89
2022/08/24 02:03:28;;;;;;;0.90;0.90;;;18.10;96.50;;;;;;5097781;28;20463;-89
2022/08/24 02:05:54;;;;;;;1.27;1.17;;;18.10;96.30;;;;;;5097619;28;20455;-89
2022/08/24 02:08:21;;;;;;;0.90;0.90;;;18.00;96.20;;;;;;5097539;28;20440;-89
2022/08/24 02:10:48;;;;;;;0.83;0.83;;;18.00;96.50;;;;;;5097520;28;20450;-89
2022/08/24 02:13:15;;;;;;;1.13;1.00;;;18.10;96.60;;;;;;5097487;28;20440;-89
2022/08/24 02:15:43;;;;;;;1.30;0.90;;;18.00;96.10;;;;;;5097381;28;20444;-89
2022/08/24 02:18:11;;;;;;;1.30;1.20;;;18.00;96.50;;;;;;5097756;28;20479;-89
2022/08/24 02:20:38;;;;;;;0.93;0.90;;;18.00;97.00;;;;;;5097232;28;20436;-90
2022/08/24 02:23:07;;;;;;;1.30;1.10;;;17.90;96.40;;;;;;5097175;28;20474;-89
2022/08/24 02:25:34;;;;;;;1.00;0.70;;;17.90;96.40;;;;;;5097157;28;20491;-89
2022/08/24 02:28:01;;;;;;;0.80;0.80;;;17.90;96.40;;;;;;5097299;28;20455;-89
2022/08/24 02:30:29;;;;;;;1.07;1.00;;;17.90;96.70;;;;;;5097107;28;20459;-89
2022/08/24 02:32:58;;;;;;;0.87;0.80;;;17.90;97.00;;;;;;5096992;28;20826;-89
2022/08/24 02:35:26;;;;;;;1.27;1.17;;;17.90;97.80;;;;;;5096776;28;20951;-89
2022/08/24 02:37:53;;;;;;;0.77;0.73;;;17.90;97.60;;;;;;5096623;28;20451;-90
2022/08/24 02:40:20;;;;;;;1.00;1.00;;;17.80;97.70;;;;;;5096905;28;20444;-89
2022/08/24 02:42:47;;;;;;;1.73;1.20;;;17.90;98.00;;;;;;5096620;28;20466;-89
2022/08/24 02:45:14;;;;;;;2.57;0.90;;;17.80;97.80;;;;;;5096995;28;20824;-89
2022/08/24 02:47:41;;;;;;;1.50;0.87;;;17.80;98.20;;;;;;5096702;28;20440;-89
2022/08/24 02:50:13;;;;;;;1.17;0.90;;;17.80;98.30;;;;;;5096733;28;20436;-89
2022/08/24 02:52:41;;;;;;;0.70;0.67;;;17.80;98.40;;;;;;5096699;28;20468;-89
2022/08/24 02:55:10;;;;;;;0.80;0.80;;;17.80;98.50;;;;;;5097145;28;20923;-89
2022/08/24 02:57:37;;;;;;;0.90;0.70;;;17.80;98.30;;;;;;5096603;28;20455;-89
2022/08/24 03:00:07;;;;;;;1.40;1.30;;;17.80;98.60;;;;;;5096512;28;20486;-89
2022/08/24 03:02:33;;;;;;;0.90;0.90;;;17.70;98.50;;;;;;5096132;28;20971;-90
2022/08/24 03:05:00;;;;;;;3.03;1.20;;;17.70;98.80;;;;;;5096430;28;20448;-90
2022/08/24 03:07:28;;;;;;;1.77;1.40;;;17.60;98.90;;;;;;5096490;28;20448;-89
2022/08/24 03:09:55;;;;;;;1.10;1.00;;;17.60;98.90;;;;;;5095724;28;20444;-90
2022/08/24 03:12:22;;;;;;;1.00;0.90;;;17.60;99.10;;;;;;5096255;28;20478;-89
2022/08/24 03:14:48;;;;;;;1.03;1.03;;;17.60;99.70;;;;;;5096178;28;20443;-89
2022/08/24 03:17:15;;;;;;;1.53;1.33;;;17.50;99.00;;;;;;5096252;28;20522;-90
2022/08/24 03:19:42;;;;;;;1.50;1.40;;;17.50;99.50;;;;;;5096064;28;20475;-90
2022/08/24 03:22:09;;;;;;;0.97;0.90;;;17.50;99.10;;;;;;5096011;28;20839;-89
2022/08/24 03:24:37;;;;;;;0.83;0.83;;;17.50;98.80;;;;;;5095863;28;20479;-89
2022/08/24 03:27:04;;;;;;;0.97;0.90;;;17.50;98.70;;;;;;5096131;28;20440;-90
2022/08/24 03:29:31;;;;;;;0.90;0.90;;;17.50;99.00;;;;;;5096043;28;20494;-89
2022/08/24 03:31:58;;;;;;;1.00;1.00;;;17.50;98.70;;;;;;5095912;28;20466;-89
2022/08/24 03:34:25;;;;;;;0.97;0.97;;;17.50;99.00;;;;;;5096252;28;20447;-90
2022/08/24 03:36:52;;;;;;;1.33;1.00;;;17.50;98.40;;;;;;5095840;28;20470;-90
2022/08/24 03:39:18;;;;;;;2.60;1.27;;;17.50;98.70;;;;;;5095739;28;20475;-89
2022/08/24 03:41:47;;;;;;;0.80;0.80;;;17.40;98.70;;;;;;5096073;28;20841;-89
2022/08/24 03:44:13;;;;;;;1.07;0.80;;;17.40;98.90;;;;;;5095470;28;20448;-89
2022/08/24 03:46:40;;;;;;;0.83;0.80;;;17.30;99.00;;;;;;5095324;28;20443;-90
2022/08/24 03:49:09;;;;;;;1.40;1.30;;;17.30;99.00;;;;;;5095778;28;20448;-89
2022/08/24 03:51:38;;;;;;;1.23;0.90;;;17.30;99.00;;;;;;5095606;28;20460;-89
2022/08/24 03:54:06;;;;;;;1.50;0.90;;;17.30;99.00;;;;;;5095935;28;20436;-89
2022/08/24 03:56:34;;;;;;;0.87;0.87;;;17.30;98.90;;;;;;5095801;28;20459;-89
2022/08/24 03:59:02;;;;;;;0.73;0.73;;;17.20;99.00;;;;;;5095675;28;21010;-89
2022/08/24 04:01:28;;;;;;;1.23;1.23;;;17.20;99.40;;;;;;5095231;28;21001;-89
2022/08/24 04:03:56;;;;;;;1.30;1.20;;;17.20;99.90;;;;;;5096044;28;20452;-89
2022/08/24 04:06:23;;;;;;;1.43;0.80;;;17.20;99.90;;;;;;5095651;28;20454;-89
2022/08/24 04:08:51;;;;;;;0.97;0.87;;;17.20;99.90;;;;;;5095423;28;20482;-89
2022/08/24 04:11:21;;;;;;;0.90;0.90;;;17.20;99.90;;;;;;5095870;28;20464;-89
2022/08/24 04:13:49;;;;;;;1.00;1.00;;;17.20;99.90;;;;;;5095511;28;20444;-89
2022/08/24 04:16:19;;;;;;;1.10;0.97;;;17.20;99.90;;;;;;5095126;28;20443;-90
2022/08/24 04:18:47;;;;;;;1.37;0.63;;;17.20;99.90;;;;;;5095594;28;20456;-90
2022/08/24 04:21:19;;;;;;;1.43;1.10;;;17.20;99.90;;;;;;5094289;28;20471;-90
2022/08/24 04:23:46;;;;;;;2.43;1.37;;;17.20;99.90;;;;;;5095300;28;20451;-89
2022/08/24 04:26:13;;;;;;;1.33;1.10;;;17.20;99.90;;;;;;5094564;28;20479;-90
2022/08/24 04:28:40;;;;;;;0.73;0.70;;;17.20;99.90;;;;;;5095016;28;20452;-89
2022/08/24 04:31:08;;;;;;;0.97;0.87;;;17.20;99.90;;;;;;5098713;28;20971;-89
2022/08/24 04:33:37;;;;;;;1.03;0.93;;;17.20;99.90;;;;;;5094893;28;20459;-89
2022/08/24 04:36:08;;;;;;;1.23;0.97;;;17.20;99.90;;;;;;5095198;28;20815;-89
2022/08/24 04:38:35;;;;;;;0.90;0.90;;;17.20;99.90;;;;;;5095887;28;20505;-89
2022/08/24 04:41:04;;;;;;;1.27;1.17;;;17.20;99.90;;;;;;5094467;28;22697;-87
2022/08/24 04:43:30;;;;;;;0.70;0.70;;;17.10;99.90;;;;;;5094814;28;20447;-89
2022/08/24 04:45:57;;;;;;;1.47;0.93;;;17.10;99.90;;;;;;5094849;28;20466;-89
2022/08/24 04:48:24;;;;;;;1.13;0.90;;;17.20;99.90;;;;;;5094375;28;20452;-89
2022/08/24 04:50:52;;;;;;;0.80;0.80;;;17.20;99.90;;;;;;5094914;28;20448;-89
2022/08/24 04:53:19;;;;;;;0.90;0.80;;;17.20;99.90;;;;;;5094598;28;20444;-89
2022/08/24 04:55:48;;;;;;;1.43;1.33;;;17.20;99.90;;;;;;5094563;28;20446;-89
2022/08/24 04:58:15;;;;;;;1.53;1.43;;;17.20;99.90;;;;;;5094602;28;20530;-89
2022/08/24 05:00:43;;;;;;;1.13;1.00;;;17.20;99.90;;;;;;5094264;28;20476;-89
2022/08/24 05:03:11;;;;;;;0.77;0.77;;;17.30;99.90;;;;;;5094559;28;20452;-89
2022/08/24 05:05:41;;;;;;;1.87;1.07;;;17.30;99.90;;;;;;5094532;28;20882;-89
2022/08/24 05:08:09;;;;;;;0.87;0.87;;;17.40;99.90;;;;;;5094517;28;20516;-90
2022/08/24 05:10:38;;;;;;;1.10;0.80;;;17.40;99.90;;;;;;5094107;28;20440;-84
2022/08/24 05:13:05;;;;;;;2.33;0.90;;;17.40;99.90;;;;;;5093307;28;20456;-84
2022/08/24 05:15:31;;;;;;;0.83;0.83;;;17.40;99.90;;;;;;5093540;28;20542;-84
2022/08/24 05:17:58;;;;;;;1.43;1.10;;;17.50;99.90;;;;;;5093338;28;20444;-84
2022/08/24 05:20:25;;;;;;;3.63;1.23;;;17.50;99.90;;;;;;5092796;28;20851;-84
2022/08/24 05:22:52;;;;;;;1.00;0.83;;;17.60;99.90;;;;;;5092635;28;20971;-84
2022/08/24 05:25:21;;;;;;;1.07;0.97;;;17.60;99.90;;;;;;5092891;28;20529;-83
2022/08/24 05:27:48;;;;;;;2.13;1.00;;;17.80;99.90;;;;;;5093295;28;20820;-84
2022/08/24 05:30:15;;;;;;;1.57;1.50;;;17.80;99.90;;;;;;5093211;28;20448;-84
2022/08/24 05:32:42;;;;;;;1.00;1.00;;;17.80;99.90;;;;;;5095074;28;20475;-84
2022/08/24 05:35:09;;;;;;;1.67;1.57;;;17.90;99.90;;;;;;5096925;28;20432;-84
2022/08/24 05:37:37;;;;;;;1.20;0.90;;;17.90;99.90;;;;;;5097117;28;20451;-84
2022/08/24 05:40:06;;;;;;;1.37;0.90;;;18.00;99.90;;;;;;5097031;28;20471;-83
2022/08/24 05:42:34;;;;;;;1.30;0.77;;;18.00;99.90;;;;;;5097068;28;20474;-84
2022/08/24 05:45:01;;;;;;;1.50;1.40;;;18.00;99.90;;;;;;5097099;28;20467;-83
2022/08/24 05:47:28;;;;;;;0.97;0.80;;;18.10;99.90;;;;;;5096941;28;20450;-84
2022/08/24 05:49:55;;;;;;;1.67;1.37;;;18.10;99.90;;;;;;5096873;28;20447;-84
2022/08/24 05:52:22;;;;;;;1.03;0.93;;;18.30;99.90;;;;;;5096788;28;20472;-84
2022/08/24 05:54:54;;;;;;;1.83;1.40;;;18.30;99.90;;;;;;5096833;28;20458;-84
2022/08/24 05:57:22;;;;;;;4.70;1.17;;;18.40;99.90;;;;;;5097700;28;20903;-83
2022/08/24 05:59:50;;;;;;;1.40;1.13;;;18.60;99.90;;;;;;5096664;28;20486;-84
2022/08/24 06:02:18;;;;;;;1.77;1.13;;;18.70;99.90;;;;;;5096555;28;20494;-84
2022/08/24 06:04:45;;;;;;;1.30;1.20;;;18.90;99.90;;;;;;5096265;28;20440;-84
2022/08/24 06:07:13;;;;;;;1.13;1.03;;;19.10;99.90;;;;;;5096578;28;20448;-83
2022/08/24 06:09:41;;;;;;;1.23;1.13;;;19.20;99.90;;;;;;5096481;28;20451;-84
2022/08/24 06:12:09;;;;;;;1.63;1.13;;;19.30;99.90;;;;;;5096087;28;20479;-84
2022/08/24 06:14:36;;;;;;;1.70;1.27;;;19.20;99.90;;;;;;5096329;28;20864;-84
2022/08/24 06:17:06;;;;;;;0.90;0.90;;;19.20;99.90;;;;;;5096035;28;20451;-84
2022/08/24 06:19:33;;;;;;;2.17;1.03;;;19.30;99.90;;;;;;5095930;28;20995;-84
2022/08/24 06:22:01;;;;;;;1.10;1.00;;;19.30;99.90;;;;;;5096126;28;20484;-84
2022/08/24 06:27:21;;;;;;;0.97;0.83;;;19.50;99.90;;;;;;5095788;28;20786;-83
2022/08/24 06:29:48;;;;;;;1.00;1.00;;;19.70;99.90;;;;;;5096175;28;20412;-84
2022/08/24 06:32:16;;;;;;;1.63;1.40;;;19.90;99.90;;;;;;5095992;28;20472;-84
2022/08/24 06:34:43;;;;;;;1.23;1.13;;;20.00;99.90;;;;;;5095729;28;20816;-84
2022/08/24 06:37:10;;;;;;;1.50;1.40;;;20.10;99.90;;;;;;5095729;28;20459;-84
2022/08/24 06:39:36;;;;;;;1.30;1.20;;;20.20;99.90;;;;;;5095951;28;20483;-84
2022/08/24 06:42:04;;;;;;;1.57;1.20;;;20.20;99.90;;;;;;5095867;28;20468;-83
2022/08/24 06:44:31;;;;;;;1.60;1.23;;;20.30;99.90;;;;;;5094730;28;20476;-84
2022/08/24 06:46:58;;;;;;;3.03;1.23;;;20.30;99.90;;;;;;5095806;28;20447;-84
2022/08/24 06:49:26;;;;;;;1.40;1.30;;;20.40;99.80;;;;;;5095467;28;20919;-84
2022/08/24 06:51:53;;;;;;;1.40;1.30;;;20.40;99.90;;;;;;5095672;28;20474;-84
2022/08/24 06:54:20;;;;;;;1.13;1.10;;;20.40;99.90;;;;;;5095898;28;20501;-83
2022/08/24 06:56:47;;;;;;;1.40;1.30;;;20.50;99.90;;;;;;5095585;28;20444;-83
2022/08/24 06:59:14;;;;;;;1.73;1.23;;;20.60;99.90;;;;;;5095605;28;20424;-84
2022/08/24 07:01:41;;;;;;;1.30;1.20;;;20.70;99.60;;;;;;5095150;28;20994;-84
2022/08/24 07:04:08;;;;;;;1.20;1.10;;;20.80;99.80;;;;;;5095213;28;20439;-84
2022/08/24 07:06:36;;;;;;;1.50;1.40;;;21.00;99.50;;;;;;5095483;28;20887;-84
2022/08/24 07:09:04;;;;;;;1.73;1.63;;;21.10;98.90;;;;;;5095118;28;20451;-84
2022/08/24 07:11:31;;;;;;;1.20;1.10;;;21.20;98.60;;;;;;5095242;28;20456;-84
2022/08/24 07:13:59;;;;;;;5.23;2.13;;;21.40;98.60;;;;;;5095300;28;20812;-84
2022/08/24 07:16:26;;;;;;;2.40;1.50;;;21.60;98.50;;;;;;5095294;28;20435;-84
2022/08/24 07:18:52;;;;;;;2.30;1.50;;;22.00;97.20;;;;;;5095025;28;20450;-83
2022/08/24 07:21:19;;;;;;;2.50;1.10;;;22.20;96.90;;;;;;5094987;28;20490;-84
2022/08/24 07:23:47;;;;;;;1.23;1.13;;;22.50;96.10;;;;;;5094777;28;20953;-83
2022/08/24 07:26:18;;;;;;;0.90;0.90;;;22.60;95.80;;;;;;5095286;28;20435;-84
2022/08/24 07:28:45;;;;;;;1.30;1.30;;;22.80;95.60;;;;;;5095041;28;20435;-84
2022/08/24 07:31:12;;;;;;;3.70;1.30;;;22.90;95.50;;;;;;5095110;28;20463;-83
2022/08/24 07:33:39;;;;;;;1.80;1.70;;;23.00;95.20;;;;;;5094980;28;20208;-83
2022/08/24 07:36:06;;;;;;;0.90;0.80;;;23.20;94.80;;;;;;5095112;28;20205;-84
2022/08/24 07:38:33;;;;;;;1.50;1.40;;;23.30;94.90;;;;;;5094813;28;20201;-84
2022/08/24 07:41:01;;;;;;;1.70;1.60;;;23.40;94.80;;;;;;5094356;28;20253;-83
2022/08/24 07:43:28;;;;;;;2.17;1.37;;;23.40;94.60;;;;;;5094631;28;20612;-84
2022/08/24 07:45:55;;;;;;;7.13;2.17;;;23.40;94.40;;;;;;5094715;28;20571;-84
2022/08/24 07:48:22;;;;;;;7.28;1.85;;;23.60;94.00;;;;;;5094624;28;20205;-83
2022/08/24 07:50:48;;;;;;;1.67;1.57;;;23.70;93.90;;;;;;5094614;28;20200;-83
2022/08/24 07:53:15;;;;;;;5.75;1.65;;;23.90;93.30;;;;;;5094504;28;20212;-83
2022/08/24 07:55:42;;;;;;;1.15;1.00;;;24.00;92.80;;;;;;5094064;28;20205;-83
2022/08/24 07:58:10;;;;;;;1.10;1.00;;;24.00;92.00;;;;;;5094115;28;20251;-83
2022/08/24 08:00:37;;;;;;;2.05;1.38;;;24.10;92.00;;;;;;5094285;28;20221;-84
2022/08/24 08:03:05;;;;;;;2.35;1.55;;;24.30;91.30;;;;;;5094297;28;20232;-83
2022/08/24 08:05:31;;;;;;;1.50;1.40;;;24.40;91.30;;;;;;5093982;28;20604;-83
2022/08/24 08:07:58;;;;;;;1.60;1.00;;;24.50;91.10;;;;;;5094269;28;20203;-83
2022/08/24 08:10:29;;;;;;;1.15;1.05;;;24.70;91.20;;;;;;5094208;28;20198;-84
2022/08/24 08:12:56;;;;;;;1.58;1.48;;;24.80;91.10;;;;;;5093816;28;20274;-83
2022/08/24 08:15:25;;;;;;;1.17;1.00;;;25.10;90.20;;;;;;5094139;28;20212;-84
2022/08/24 08:17:52;;;;;;;1.00;0.90;;;25.20;90.20;;;;;;5094151;28;20569;-84
2022/08/24 08:20:19;;;;;;;1.42;1.33;;;25.40;90.10;;;;;;5093611;28;20217;-83
2022/08/24 08:25:30;;;;;;;1.73;1.33;;;25.50;90.00;;;;;;5093599;28;20667;-83
2022/08/24 08:27:57;;;;;;;1.33;1.23;;;25.60;90.20;;;;;;5094194;28;20201;-84
2022/08/24 08:30:25;;;;;;;2.33;1.30;;;25.90;87.50;;;;;;5093919;28;20205;-84
2022/08/24 08:32:52;;;;;;;1.20;1.20;;;26.00;86.50;;;;;;5093766;28;20229;-84
2022/08/24 08:35:19;;;;;;;1.45;1.35;;;26.00;86.00;;;;;;5094007;28;20201;-84
2022/08/24 08:37:46;;;;;;;1.35;1.25;;;26.20;87.90;;;;;;5093578;28;20211;-84
2022/08/24 08:40:24;;;;;;;1.27;1.17;;;26.20;88.10;;;;;;5093828;28;20252;-84
2022/08/24 08:43:02;;;;;;;1.00;1.00;;;26.30;87.10;;;;;;5093756;28;20221;-84
2022/08/24 08:46:06;;;;;;;1.50;0.82;;;26.70;82.30;;;;;;5093719;28;20272;-84
2022/08/24 08:49:04;;;;;;;0.80;0.80;;;26.80;78.80;;;;;;5093657;28;20186;-85
2022/08/24 08:51:51;;;;;;;0.90;0.90;;;27.00;77.10;;;;;;5093572;28;20221;-84
2022/08/24 08:54:46;;;;;;;1.40;1.30;;;27.10;76.00;;;;;;5093674;28;20177;-84
2022/08/24 08:57:27;;;;;;;3.38;1.00;;;27.20;75.60;;;;;;5093646;28;20189;-84
2022/08/24 09:00:10;;;;;;;1.17;0.88;;;27.50;73.50;;;;;;5093580;28;20182;-84
2022/08/24 09:03:06;;;;;;;1.10;0.98;;;27.70;72.70;;;;;;5093581;28;20217;-84
2022/08/24 09:06:13;;;;;;;1.00;0.80;;;28.00;72.20;;;;;;5093213;28;20193;-85
2022/08/24 09:08:59;;;;;;;0.70;0.70;;;28.20;72.00;;;;;;5097392;28;20216;-85
2022/08/24 09:11:35;;;;;;;1.52;1.10;;;28.30;69.50;;;;;;5097850;28;20221;-85
2022/08/24 09:14:38;;;;;;;0.80;0.80;;;28.00;70.70;;;;;;5097349;28;20193;-85
2022/08/24 09:17:21;;;;;;;0.77;0.77;;;28.00;70.00;;;;;;5040507;28;20203;-85
2022/08/24 09:20:08;;;;;;;0.73;0.73;;;27.90;70.40;;;;;;5097259;28;20664;-84
2022/08/24 09:22:39;;;;;;;0.93;0.90;;;27.90;68.50;;;;;;5097551;28;20312;-84
2022/08/24 09:25:22;;;;;;;1.25;1.25;;;28.00;67.70;;;;;;5097084;28;20244;-85
2022/08/24 09:28:14;;;;;;;1.13;1.13;;;28.10;68.40;;;;;;5097404;28;20189;-83
2022/08/24 09:31:08;;;;;;;0.70;0.70;;;28.30;66.80;;;;;;5097322;28;20260;-83
2022/08/24 09:33:41;;;;;;;0.60;0.60;;;28.20;66.60;;;;;;5097538;28;20181;-83
2022/08/24 09:36:12;;;;;;;0.90;0.90;;;28.20;66.90;;;;;;5096916;28;20658;-83
2022/08/24 09:39:05;;;;;;;0.85;0.60;;;28.20;66.20;;;;;;5097768;28;20559;-83
2022/08/24 09:42:04;;;;;;;8.95;1.05;;;28.20;65.10;;;;;;5082793;28;20229;-85
2022/08/24 09:44:59;;;;;;;0.82;0.82;;;28.20;65.10;;;;;;5097047;28;20209;-83
2022/08/24 09:47:50;;;;;;;0.75;0.75;;;28.20;64.70;;;;;;5097653;28;20189;-85
2022/08/24 09:50:47;;;;;;;0.73;0.73;;;28.30;63.20;;;;;;5097146;28;20206;-87
2022/08/24 09:53:54;;;;;;;0.68;0.65;;;28.40;62.80;;;;;;5096884;28;20197;-84
2022/08/24 09:56:40;;;;;;;1.13;0.70;;;28.60;62.80;;;;;;5096529;28;20201;-81
2022/08/24 09:59:21;;;;;;;0.50;0.50;;;28.80;61.30;;;;;;5085674;28;20208;-80
2022/08/24 10:02:00;;;;;;;0.80;0.80;;;29.00;60.60;;;;;;5096865;28;20235;-82
2022/08/24 10:04:36;;;;;;;0.60;0.60;;;29.00;59.50;;;;;;5096715;28;20221;-80
2022/08/24 10:07:12;;;;;;;0.60;0.60;;;28.80;59.30;;;;;;5096422;28;20648;-80
2022/08/24 10:10:12;;;;;;;0.70;0.70;;;28.70;61.30;;;;;;5096650;28;20186;-81
2022/08/24 10:12:52;;;;;;;0.80;0.80;;;28.60;60.10;;;;;;5093555;28;20217;-80
2022/08/24 10:15:23;;;;;;;1.95;0.70;;;28.50;61.80;;;;;;5096442;28;20242;-81
2022/08/24 10:18:07;;;;;;;0.60;0.60;;;28.60;60.60;;;;;;5096354;28;20205;-81
2022/08/24 10:20:52;;;;;;;0.60;0.60;;;28.70;61.30;;;;;;5096320;28;20181;-80
2022/08/24 10:23:45;;;;;;;0.68;0.68;;;28.90;59.30;;;;;;5096314;28;20190;-80
2022/08/24 10:26:21;;;;;;;0.50;0.50;;;29.00;56.90;;;;;;5095817;28;20236;-81
2022/08/24 10:29:11;;;;;;;0.70;0.70;;;28.90;56.80;;;;;;5096200;28;20193;-81
2022/08/24 10:31:50;;;;;;;1.15;0.60;;;29.00;58.00;;;;;;5096125;28;20232;-81
2022/08/24 10:34:33;;;;;;;0.50;0.50;;;29.10;56.90;;;;;;5095853;28;20212;-81
2022/08/24 10:37:23;;;;;;;1.20;1.10;;;29.20;56.00;;;;;;5096041;28;20217;-81
2022/08/24 10:40:11;;;;;;;0.50;0.50;;;29.30;56.60;;;;;;5095716;28;20186;-85
2022/08/24 10:43:36;;;;;;;0.70;0.70;;;29.60;56.10;;;;;;5095982;28;20234;-88
2022/08/24 10:46:36;;;;;;;0.60;0.60;;;29.80;55.40;;;;;;5033911;28;20203;-85
2022/08/24 10:49:42;;;;;;;0.90;0.70;;;29.70;55.20;;;;;;5096194;28;20190;-89
2022/08/24 10:52:58;;;;;;;0.73;0.60;;;29.70;55.80;;;;;;5096432;28;20224;-88
2022/08/24 10:55:29;;;;;;;1.58;0.98;;;29.80;55.90;;;;;;5033984;28;20191;-89
2022/08/24 10:58:22;;;;;;;0.80;0.75;;;29.60;56.60;;;;;;5091210;28;20201;-88
2022/08/24 11:00:50;;;;;;;1.02;0.80;;;29.70;58.10;;;;;;5085199;28;20219;-87
2022/08/24 11:03:20;;;;;;;0.70;0.70;;;29.80;56.90;;;;;;5096175;28;20205;-88
2022/08/24 11:05:50;;;;;;;0.65;0.65;;;30.00;56.10;;;;;;5095910;28;20236;-88
2022/08/24 11:08:22;;;;;;;0.70;0.70;;;30.10;56.30;;;;;;5096919;28;20195;-87
2022/08/24 11:11:06;;;;;;;4.70;0.90;;;30.20;56.20;;;;;;5096048;28;20183;-87
2022/08/24 11:13:36;;;;;;;0.68;0.57;;;30.00;56.40;;;;;;5095922;28;20236;-88
2022/08/24 11:16:05;;;;;;;0.90;0.90;;;29.80;56.60;;;;;;5096763;28;20190;-88
2022/08/24 11:18:48;;;;;;;0.60;0.60;;;29.70;56.80;;;;;;5095337;28;20690;-87
2022/08/24 11:21:32;;;;;;;0.88;0.88;;;29.60;56.50;;;;;;5095755;28;20657;-88
2022/08/24 11:24:03;;;;;;;0.70;0.60;;;29.40;56.50;;;;;;5094917;28;20201;-87
2022/08/24 11:26:30;;;;;;;0.80;0.80;;;29.40;56.80;;;;;;5095724;28;20186;-88
2022/08/24 11:29:04;;;;;;;0.60;0.60;;;29.20;57.60;;;;;;5095436;28;20205;-87
2022/08/24 11:31:34;;;;;;;0.75;0.73;;;29.20;57.20;;;;;;5094942;28;20229;-88
2022/08/24 11:34:06;;;;;;;0.50;0.50;;;29.10;56.20;;;;;;5095061;28;20774;-87
2022/08/24 11:36:36;;;;;;;0.68;0.60;;;29.10;56.50;;;;;;5095215;28;20250;-87
2022/08/24 11:39:17;;;;;;;0.80;0.73;;;29.10;56.30;;;;;;5095422;28;20298;-90
2022/08/24 11:41:54;;;;;;;0.98;0.88;;;29.00;56.10;;;;;;5095140;28;20274;-87
2022/08/24 11:44:38;;;;;;;0.60;0.60;;;28.90;57.40;;;;;;5095165;28;20189;-88
2022/08/24 11:47:23;;;;;;;0.50;0.50;;;28.90;57.50;;;;;;5094919;28;20190;-86
2022/08/24 11:50:00;;;;;;;0.90;0.90;;;28.90;57.30;;;;;;5094457;28;20193;-85
2022/08/24 11:52:39;;;;;;;0.77;0.55;;;28.90;58.70;;;;;;5095106;28;20252;-85
2022/08/24 11:55:12;;;;;;;2.28;0.77;;;28.90;57.40;;;;;;5094576;28;20195;-86
2022/08/24 11:57:46;;;;;;;0.55;0.55;;;29.00;58.50;;;;;;5094533;28;20189;-84
2022/08/24 12:00:17;;;;;;;0.70;0.70;;;28.90;57.90;;;;;;5094194;28;20207;-84
2022/08/24 12:02:51;;;;;;;0.80;0.80;;;28.90;57.40;;;;;;5094279;28;20583;-86
2022/08/24 12:05:24;;;;;;;0.65;0.65;;;28.90;57.10;;;;;;5094527;28;20186;-85
2022/08/24 12:08:03;;;;;;;0.70;0.70;;;28.80;57.10;;;;;;5094398;28;20196;-86
2022/08/24 12:10:38;;;;;;;1.48;0.70;;;28.70;57.50;;;;;;5094339;28;20185;-86
2022/08/24 12:13:09;;;;;;;0.73;0.73;;;28.70;58.90;;;;;;5094234;28;20228;-86
2022/08/24 12:15:45;;;;;;;0.70;0.70;;;28.70;57.40;;;;;;5094244;28;20197;-86
2022/08/24 12:18:24;;;;;;;0.70;0.50;;;28.70;58.40;;;;;;5094986;28;20189;-86
2022/08/24 12:20:52;;;;;;;0.55;0.55;;;28.70;58.90;;;;;;5094450;28;20207;-87
2022/08/24 12:23:27;;;;;;;0.70;0.65;;;28.70;58.40;;;;;;5093862;28;20681;-86
2022/08/24 12:26:02;;;;;;;0.70;0.63;;;28.70;56.20;;;;;;5094072;28;20232;-86
2022/08/24 12:28:34;;;;;;;0.60;0.60;;;28.70;56.60;;;;;;5093985;28;20678;-84
2022/08/24 12:31:09;;;;;;;0.70;0.70;;;28.60;56.60;;;;;;5094001;28;20189;-85
2022/08/24 12:33:38;;;;;;;2.75;0.77;;;28.60;56.50;;;;;;5094066;28;20617;-86
2022/08/24 12:36:14;;;;;;;0.60;0.60;;;28.50;56.90;;;;;;5094141;28;20217;-87
2022/08/24 12:38:48;;;;;;;0.68;0.50;;;28.40;56.20;;;;;;5094112;28;20193;-87
2022/08/24 12:41:20;;;;;;;0.70;0.70;;;28.30;56.20;;;;;;5093279;28;20638;-87
2022/08/24 12:43:51;;;;;;;2.25;0.60;;;28.30;55.50;;;;;;5094138;28;20185;-88
2022/08/24 12:46:23;;;;;;;0.50;0.50;;;28.20;54.90;;;;;;5094038;28;20639;-87
2022/08/24 12:48:56;;;;;;;0.60;0.50;;;28.20;54.70;;;;;;5093933;28;20189;-89
2022/08/24 12:51:29;;;;;;;1.50;0.75;;;28.00;55.50;;;;;;5093930;28;20242;-87
2022/08/24 12:54:20;;;;;;;1.25;0.50;;;27.90;55.60;;;;;;5093932;28;20197;-87
2022/08/24 12:57:10;;;;;;;0.60;0.50;;;27.90;56.20;;;;;;5093863;28;20189;-85
2022/08/24 12:59:40;;;;;;;1.02;0.60;;;27.90;55.90;;;;;;5091678;28;20208;-87
2022/08/24 13:02:27;;;;;;;0.50;0.50;;;27.90;56.70;;;;;;5093741;28;20296;-88
2022/08/24 13:05:00;;;;;;;0.60;0.60;;;27.90;55.60;;;;;;5093810;28;20189;-87
2022/08/24 13:07:31;;;;;;;0.43;0.43;;;28.00;54.90;;;;;;5093712;28;20737;-85
2022/08/24 13:10:13;;;;;;;0.70;0.70;;;28.10;53.40;;;;;;5093772;28;20189;-86
2022/08/24 13:13:08;;;;;;;0.60;0.60;;;28.00;54.90;;;;;;5093821;28;20231;-86
2022/08/24 13:15:54;;;;;;;0.63;0.63;;;28.00;56.20;;;;;;5093664;28;20189;-86
2022/08/24 13:19:09;;;;;;;0.73;0.70;;;27.90;55.90;;;;;;5093562;28;20192;-87
2022/08/24 13:21:50;;;;;;;0.68;0.60;;;27.80;56.30;;;;;;5093496;28;20228;-86
2022/08/24 13:24:49;;;;;;;0.60;0.60;;;27.90;55.00;;;;;;5093478;28;20229;-86